createdAt,value
2019-05-23T00:02:09.619Z,12.65
2019-05-23T00:04:43.244Z,16.25
2019-05-23T00:07:16.390Z,13.80
2019-05-23T00:09:43.161Z,16.60
2019-05-23T00:12:29.509Z,14.95
2019-05-23T00:15:00.393Z,14.23
2019-05-23T00:20:18.033Z,11.83
2019-05-23T00:22:44.893Z,15.28
2019-05-23T00:25:14.082Z,16.97
2019-05-23T00:27:42.443Z,19.50
2019-05-23T00:30:12.304Z,17.12
2019-05-23T00:32:46.433Z,19.90
2019-05-23T00:35:14.419Z,20.85
2019-05-23T00:37:42.686Z,18.02
2019-05-23T00:40:11.998Z,20.32
2019-05-23T00:42:39.571Z,19.23
2019-05-23T00:45:07.074Z,15.23
2019-05-23T00:47:33.734Z,18.10
2019-05-23T00:50:01.515Z,16.48
2019-05-23T00:52:29.161Z,16.35
2019-05-23T00:54:57.540Z,15.03
2019-05-23T00:57:27.108Z,22.90
2019-05-23T00:59:54.388Z,15.58
2019-05-23T01:02:21.150Z,16.97
2019-05-23T01:04:48.638Z,19.62
2019-05-23T01:07:16.536Z,19.70
2019-05-23T01:09:43.572Z,19.37
2019-05-23T01:12:11.959Z,20.20
2019-05-23T01:14:38.618Z,20.02
2019-05-23T01:17:07.748Z,18.65
2019-05-23T01:19:34.824Z,21.20
2019-05-23T01:22:04.548Z,16.90
2019-05-23T01:24:34.611Z,23.83
2019-05-23T01:27:04.374Z,19.17
2019-05-23T01:29:38.868Z,21.53
2019-05-23T01:32:13.984Z,20.60
2019-05-23T01:34:41.532Z,27.70
2019-05-23T01:37:09.753Z,25.10
2019-05-23T01:39:37.126Z,26.45
2019-05-23T01:42:04.808Z,30.17
2019-05-23T01:44:32.086Z,27.00
2019-05-23T01:46:59.574Z,28.85
2019-05-23T01:49:26.534Z,35.15
2019-05-23T01:51:54.129Z,32.10
2019-05-23T01:54:21.222Z,36.70
2019-05-23T01:56:48.610Z,42.70
2019-05-23T01:59:15.916Z,35.08
2019-05-23T02:01:43.719Z,35.38
2019-05-23T02:04:10.899Z,41.55
2019-05-23T02:06:38.331Z,35.80
2019-05-23T02:09:07.224Z,29.70
2019-05-23T02:11:34.815Z,23.52
2019-05-23T02:14:03.524Z,29.30
2019-05-23T02:16:31.110Z,28.52
2019-05-23T02:18:57.978Z,27.22
2019-05-23T02:21:26.478Z,27.82
2019-05-23T02:23:53.659Z,31.02
2019-05-23T02:26:21.567Z,37.10
2019-05-23T02:28:48.459Z,42.03
2019-05-23T02:31:36.562Z,37.90
2019-05-23T02:34:04.670Z,27.10
2019-05-23T02:36:31.635Z,29.18
2019-05-23T02:39:16.770Z,24.55
2019-05-23T02:41:51.216Z,30.27
2019-05-23T02:44:20.739Z,30.30
2019-05-23T02:46:59.600Z,25.08
2019-05-23T02:49:30.275Z,20.75
2019-05-23T02:54:29.679Z,21.60
2019-05-23T02:56:59.087Z,26.02
2019-05-23T02:59:55.448Z,26.27
2019-05-23T03:02:57.787Z,25.23
2019-05-23T03:05:25.679Z,25.82
2019-05-23T03:07:53.367Z,29.60
2019-05-23T03:10:23.669Z,26.27
2019-05-23T03:12:52.256Z,34.65
2019-05-23T03:15:21.126Z,39.78
2019-05-23T03:17:51.929Z,40.20
2019-05-23T03:20:19.831Z,48.75
2019-05-23T03:22:53.886Z,65.30
2019-05-23T03:26:03.196Z,71.40
2019-05-23T03:28:38.588Z,59.90
2019-05-23T03:31:28.754Z,68.50
2019-05-23T03:33:40.240Z,78.65
2019-05-23T03:36:07.788Z,58.35
2019-05-23T03:38:34.865Z,65.75
2019-05-23T03:41:03.818Z,64.65
2019-05-23T03:43:31.111Z,50.78
2019-05-23T03:46:02.606Z,54.75
2019-05-23T03:48:30.687Z,54.03
2019-05-23T03:50:58.943Z,44.33
2019-05-23T03:53:27.630Z,42.62
2019-05-23T03:55:56.866Z,33.20
2019-05-23T03:58:24.782Z,32.78
2019-05-23T04:00:54.076Z,24.90
2019-05-23T04:03:21.727Z,29.45
2019-05-23T04:05:48.891Z,30.82
2019-05-23T04:08:16.525Z,26.40
2019-05-23T04:10:43.600Z,22.50
2019-05-23T04:13:10.875Z,23.95
2019-05-23T04:15:37.634Z,20.17
2019-05-23T04:18:04.413Z,23.70
2019-05-23T04:20:32.528Z,22.87
2019-05-23T04:22:59.821Z,19.73
2019-05-23T04:25:26.583Z,21.15
2019-05-23T04:27:53.737Z,19.05
2019-05-23T04:30:20.841Z,25.37
2019-05-23T04:32:47.638Z,22.48
2019-05-23T04:35:15.094Z,22.90
2019-05-23T04:37:41.781Z,18.95
2019-05-23T04:40:10.552Z,19.45
2019-05-23T04:42:37.230Z,18.65
2019-05-23T04:45:05.428Z,17.50
2019-05-23T04:47:32.527Z,16.60
2019-05-23T04:49:59.985Z,17.37
2019-05-23T04:52:26.995Z,14.70
2019-05-23T04:54:53.647Z,14.90
2019-05-23T04:57:20.414Z,16.93
2019-05-23T04:59:47.623Z,17.62
2019-05-23T05:02:25.329Z,15.50
2019-05-23T05:04:44.027Z,16.00
2019-05-23T05:07:10.863Z,19.60
2019-05-23T05:09:37.983Z,15.93
2019-05-23T05:12:05.202Z,16.23
2019-05-23T05:14:32.425Z,18.52
2019-05-23T05:16:59.306Z,14.95
2019-05-23T05:19:26.427Z,14.25
2019-05-23T05:21:53.279Z,16.25
2019-05-23T05:24:20.360Z,12.63
2019-05-23T05:26:47.130Z,12.03
2019-05-23T05:29:14.032Z,16.42
2019-05-23T05:31:40.944Z,12.88
2019-05-23T05:34:07.631Z,12.98
2019-05-23T05:36:34.341Z,12.23
2019-05-23T05:39:01.139Z,12.85
2019-05-23T05:41:28.308Z,11.08
2019-05-23T05:43:54.983Z,13.88
2019-05-23T05:46:22.899Z,13.43
2019-05-23T05:48:49.843Z,12.33
2019-05-23T05:51:16.804Z,11.45
2019-05-23T05:53:44.035Z,12.33
2019-05-23T05:56:11.133Z,16.50
2019-05-23T05:58:37.892Z,12.47
2019-05-23T06:01:08.302Z,9.05
2019-05-23T06:03:35.374Z,8.88
2019-05-23T06:06:11.791Z,9.98
2019-05-23T06:08:39.977Z,11.75
2019-05-23T06:11:06.823Z,9.85
2019-05-23T06:13:33.979Z,11.97
2019-05-23T06:16:00.931Z,10.60
2019-05-23T06:18:27.627Z,12.85
2019-05-23T06:20:54.956Z,12.45
2019-05-23T06:23:22.503Z,9.68
2019-05-23T06:25:49.594Z,9.60
2019-05-23T06:28:17.863Z,9.98
2019-05-23T06:30:45.906Z,11.57
2019-05-23T06:33:22.693Z,12.58
2019-05-23T06:35:41.663Z,9.58
2019-05-23T06:38:08.431Z,10.45
2019-05-23T06:40:36.529Z,10.63
2019-05-23T06:43:03.762Z,10.50
2019-05-23T06:45:30.969Z,12.23
2019-05-23T06:47:57.749Z,10.58
2019-05-23T06:50:24.923Z,10.82
2019-05-23T06:52:51.823Z,11.20
2019-05-23T06:55:18.658Z,14.58
2019-05-23T06:57:45.401Z,13.60
2019-05-23T07:00:14.452Z,12.15
2019-05-23T07:02:42.043Z,12.73
2019-05-23T07:05:09.135Z,12.80
2019-05-23T07:07:36.750Z,12.47
2019-05-23T07:10:05.003Z,13.13
2019-05-23T07:12:32.149Z,13.53
2019-05-23T07:14:58.986Z,14.65
2019-05-23T07:17:26.643Z,15.18
2019-05-23T07:19:53.450Z,13.38
2019-05-23T07:22:21.146Z,13.60
2019-05-23T07:24:57.965Z,14.65
2019-05-23T07:27:18.108Z,14.47
2019-05-23T07:29:44.909Z,13.98
2019-05-23T07:32:11.788Z,15.43
2019-05-23T07:34:38.596Z,15.85
2019-05-23T07:37:05.275Z,13.72
2019-05-23T07:39:31.985Z,13.83
2019-05-23T07:41:58.567Z,15.53
2019-05-23T07:44:26.255Z,15.83
2019-05-23T07:46:53.520Z,15.03
2019-05-23T07:49:20.249Z,14.90
2019-05-23T07:51:46.932Z,14.55
2019-05-23T07:54:37.744Z,14.38
2019-05-23T07:57:07.721Z,10.03
2019-05-23T07:59:35.031Z,12.55
2019-05-23T08:02:14.166Z,11.10
2019-05-23T08:04:40.957Z,10.80
2019-05-23T08:07:09.440Z,11.50
2019-05-23T08:09:36.127Z,9.50
2019-05-23T08:12:03.351Z,9.15
2019-05-23T08:14:30.114Z,10.23
2019-05-23T08:16:56.996Z,8.20
2019-05-23T08:19:23.760Z,8.40
2019-05-23T08:21:50.541Z,7.60
2019-05-23T08:24:17.793Z,8.15
2019-05-23T08:26:46.980Z,9.70
2019-05-23T08:29:25.577Z,8.68
2019-05-23T08:31:42.669Z,7.17
2019-05-23T08:34:09.450Z,8.23
2019-05-23T08:36:36.231Z,7.00
2019-05-23T08:39:07.791Z,7.75
2019-05-23T08:41:34.564Z,7.50
2019-05-23T08:44:01.930Z,6.90
2019-05-23T08:46:29.106Z,7.37
2019-05-23T08:48:56.180Z,7.75
2019-05-23T08:51:22.877Z,7.60
2019-05-23T08:53:49.649Z,7.03
2019-05-23T08:56:19.479Z,9.08
2019-05-23T08:58:45.954Z,6.45
2019-05-23T09:01:12.743Z,6.30
2019-05-23T09:03:39.611Z,7.80
2019-05-23T09:06:08.198Z,9.28
2019-05-23T09:08:35.982Z,7.17
2019-05-23T09:11:02.811Z,6.67
2019-05-23T09:13:30.305Z,7.53
2019-05-23T09:15:56.997Z,9.75
2019-05-23T09:18:23.856Z,9.15
2019-05-23T09:20:50.520Z,10.68
2019-05-23T09:23:17.110Z,8.85
2019-05-23T09:25:43.996Z,11.50
2019-05-23T09:28:12.279Z,8.73
2019-05-23T09:30:39.061Z,9.63
2019-05-23T09:33:06.493Z,10.70
2019-05-23T09:35:33.859Z,10.50
2019-05-23T09:38:00.441Z,10.23
2019-05-23T09:40:27.214Z,9.65
2019-05-23T09:42:54.111Z,9.83
2019-05-23T09:45:20.918Z,9.38
2019-05-23T09:47:50.887Z,8.93
2019-05-23T09:50:19.660Z,12.05
2019-05-23T09:52:46.519Z,11.80
2019-05-23T09:55:13.486Z,10.35
2019-05-23T09:57:40.620Z,10.18
2019-05-23T10:00:10.186Z,12.40
2019-05-23T10:05:05.668Z,10.53
2019-05-23T10:07:32.761Z,10.10
2019-05-23T10:09:59.455Z,8.75
2019-05-23T10:12:26.203Z,7.30
2019-05-23T10:14:52.951Z,10.03
2019-05-23T10:17:19.639Z,7.85
2019-05-23T10:19:46.435Z,7.03
2019-05-23T10:22:34.576Z,7.62
2019-05-23T10:25:01.369Z,7.12
2019-05-23T10:27:29.391Z,8.70
2019-05-23T10:29:56.150Z,7.25
2019-05-23T10:32:23.529Z,8.88
2019-05-23T10:34:50.293Z,8.48
2019-05-23T10:37:18.195Z,7.42
2019-05-23T10:39:50.602Z,6.78
2019-05-23T10:42:18.453Z,6.80
2019-05-23T10:44:45.333Z,7.15
2019-05-23T10:47:11.921Z,6.20
2019-05-23T10:49:41.080Z,6.47
2019-05-23T10:52:07.750Z,6.87
2019-05-23T10:54:34.536Z,8.45
2019-05-23T10:57:01.233Z,8.63
2019-05-23T10:59:27.901Z,8.68
2019-05-23T11:01:55.188Z,8.53
2019-05-23T11:04:21.825Z,10.58
2019-05-23T11:06:49.545Z,9.50
2019-05-23T11:09:16.421Z,9.30
2019-05-23T11:11:43.327Z,10.50
2019-05-23T11:14:10.405Z,10.72
2019-05-23T11:16:37.177Z,11.90
2019-05-23T11:19:04.768Z,11.22
2019-05-23T11:21:31.455Z,9.98
2019-05-23T11:23:59.506Z,12.20
2019-05-23T11:26:26.521Z,9.70
2019-05-23T11:28:53.400Z,10.55
2019-05-23T11:34:08.369Z,10.18
2019-05-23T11:36:36.715Z,10.90
2019-05-23T11:39:06.351Z,11.35
2019-05-23T11:41:33.547Z,11.65
2019-05-23T11:44:00.714Z,11.55
2019-05-23T11:46:30.180Z,11.85
2019-05-23T11:48:56.860Z,11.53
2019-05-23T11:51:25.622Z,9.93
2019-05-23T11:54:07.125Z,9.88
2019-05-23T11:56:21.553Z,9.55
2019-05-23T11:58:48.349Z,11.53
2019-05-23T12:01:40.628Z,11.88
2019-05-23T12:04:27.081Z,10.85
2019-05-23T12:06:58.273Z,11.90
2019-05-23T12:09:26.491Z,11.40
2019-05-23T12:11:53.379Z,10.25
2019-05-23T12:14:20.174Z,10.50
2019-05-23T12:16:47.876Z,9.45
2019-05-23T12:19:15.450Z,11.70
2019-05-23T12:21:42.168Z,12.10
2019-05-23T12:24:09.069Z,11.75
2019-05-23T12:26:35.859Z,12.28
2019-05-23T12:29:03.139Z,10.50
2019-05-23T12:31:29.712Z,10.68
2019-05-23T12:33:56.527Z,10.18
2019-05-23T12:36:23.684Z,11.10
2019-05-23T12:38:50.492Z,10.60
2019-05-23T12:41:19.468Z,7.97
2019-05-23T12:43:46.183Z,10.65
2019-05-23T12:46:13.021Z,12.35
2019-05-23T12:48:58.787Z,10.63
2019-05-23T12:51:29.823Z,8.65
2019-05-23T12:53:56.388Z,7.72
2019-05-23T12:56:24.338Z,8.43
2019-05-23T12:58:51.398Z,6.67
2019-05-23T13:01:39.186Z,4.55
2019-05-23T13:04:27.390Z,6.10
2019-05-23T13:06:58.267Z,5.62
2019-05-23T13:09:25.070Z,4.25
2019-05-23T13:11:52.044Z,5.37
2019-05-23T13:14:19.439Z,6.25
2019-05-23T13:16:46.531Z,5.83
2019-05-23T13:19:13.441Z,5.28
2019-05-23T13:21:40.279Z,5.62
2019-05-23T13:24:07.534Z,5.05
2019-05-23T13:26:34.308Z,5.00
2019-05-23T13:29:24.574Z,4.67
2019-05-23T13:34:17.948Z,5.67
2019-05-23T13:36:45.040Z,5.67
2019-05-23T13:39:11.849Z,6.47
2019-05-23T13:41:38.633Z,5.97
2019-05-23T13:44:05.795Z,6.60
2019-05-23T13:46:32.997Z,7.20
2019-05-23T13:48:59.921Z,6.12
2019-05-23T13:51:26.736Z,6.62
2019-05-23T13:53:53.445Z,4.25
2019-05-23T13:56:20.310Z,5.15
2019-05-23T13:58:47.441Z,5.08
2019-05-23T14:01:14.261Z,6.33
2019-05-23T14:03:42.055Z,6.20
2019-05-23T14:06:08.882Z,6.05
2019-05-23T14:08:35.647Z,6.37
2019-05-23T14:11:02.648Z,6.70
2019-05-23T14:13:30.535Z,6.20
2019-05-23T14:15:57.508Z,6.95
2019-05-23T14:18:26.294Z,6.47
2019-05-23T14:20:53.190Z,5.28
2019-05-23T14:23:27.727Z,4.72
2019-05-23T14:25:54.825Z,6.90
2019-05-23T14:28:21.656Z,5.15
2019-05-23T14:31:10.944Z,4.55
2019-05-23T14:33:43.855Z,7.12
2019-05-23T14:36:18.718Z,7.40
2019-05-23T14:38:45.298Z,5.45
2019-05-23T14:41:12.169Z,7.58
2019-05-23T14:43:39.536Z,5.15
2019-05-23T14:46:08.873Z,6.67
2019-05-23T14:48:52.582Z,6.03
2019-05-23T14:51:32.359Z,5.00
2019-05-23T14:54:09.817Z,5.55
2019-05-23T14:56:37.131Z,6.78
2019-05-23T14:59:04.177Z,8.55
2019-05-23T15:01:32.889Z,4.78
2019-05-23T15:03:59.983Z,4.47
2019-05-23T15:06:27.592Z,5.53
2019-05-23T15:08:54.459Z,6.17
2019-05-23T15:11:21.297Z,6.70
2019-05-23T15:13:48.182Z,5.60
2019-05-23T15:16:16.012Z,8.80
2019-05-23T15:18:42.786Z,4.67
2019-05-23T15:21:09.579Z,4.47
2019-05-23T15:23:36.310Z,6.90
2019-05-23T15:26:21.535Z,7.03
2019-05-23T15:28:33.184Z,7.53
2019-05-23T15:30:59.879Z,5.97
2019-05-23T15:33:26.617Z,10.53
2019-05-23T15:35:53.346Z,5.65
2019-05-23T15:38:19.936Z,7.53
2019-05-23T15:40:46.750Z,7.85
2019-05-23T15:43:13.547Z,8.88
2019-05-23T15:45:40.389Z,8.23
2019-05-23T15:48:07.063Z,9.18
2019-05-23T15:50:39.858Z,6.72
2019-05-23T15:53:15.623Z,7.62
2019-05-23T15:56:26.121Z,8.53
2019-05-23T15:58:54.640Z,9.13
2019-05-23T16:01:30.631Z,8.53
2019-05-23T16:04:03.803Z,10.98
2019-05-23T16:06:32.531Z,9.80
2019-05-23T16:08:59.611Z,9.40
2019-05-23T16:11:26.608Z,8.80
2019-05-23T16:13:53.376Z,11.70
2019-05-23T16:16:20.294Z,11.60
2019-05-23T16:18:47.834Z,10.40
2019-05-23T16:21:15.037Z,9.73
2019-05-23T16:23:41.839Z,10.38
2019-05-23T16:26:11.631Z,9.55
2019-05-23T16:28:37.197Z,10.00
2019-05-23T16:31:04.014Z,10.95
2019-05-23T16:33:30.801Z,10.60
2019-05-23T16:35:57.650Z,11.63
2019-05-23T16:38:24.431Z,12.18
2019-05-23T16:40:51.223Z,10.05
2019-05-23T16:43:18.012Z,13.00
2019-05-23T16:45:44.978Z,9.45
2019-05-23T16:48:11.778Z,9.60
2019-05-23T16:50:38.591Z,12.15
2019-05-23T16:53:05.358Z,12.28
2019-05-23T16:55:57.382Z,11.30
2019-05-23T16:58:42.061Z,11.35
2019-05-23T17:01:28.562Z,10.05
2019-05-23T17:04:17.617Z,12.73
2019-05-23T17:06:50.754Z,11.12
2019-05-23T17:09:39.192Z,12.13
2019-05-23T17:12:27.528Z,12.28
2019-05-23T17:14:59.102Z,10.72
2019-05-23T17:18:02.468Z,10.38
2019-05-23T17:20:30.020Z,9.45
2019-05-23T17:23:05.707Z,9.03
2019-05-23T17:25:52.949Z,10.32
2019-05-23T17:28:26.654Z,11.00
2019-05-23T17:30:57.163Z,10.85
2019-05-23T17:35:50.472Z,15.40
2019-05-23T17:38:17.303Z,12.35
2019-05-23T17:40:44.134Z,11.33
2019-05-23T17:43:11.434Z,9.75
2019-05-23T17:45:39.754Z,9.75
2019-05-23T17:48:06.612Z,8.73
2019-05-23T17:50:34.860Z,11.12
2019-05-23T17:53:02.021Z,10.78
2019-05-23T17:55:29.450Z,11.60
2019-05-23T17:57:57.013Z,11.25
2019-05-23T18:00:28.145Z,4.33
2019-05-23T18:02:54.943Z,7.37
2019-05-23T18:05:22.451Z,3.27
2019-05-23T18:07:49.233Z,3.77
2019-05-23T18:10:16.735Z,3.90
2019-05-23T18:12:43.624Z,5.10
2019-05-23T18:15:12.877Z,4.28
2019-05-23T18:17:39.573Z,6.53
2019-05-23T18:20:07.537Z,4.90
2019-05-23T18:22:36.437Z,5.22
2019-05-23T18:25:03.832Z,4.97
2019-05-23T18:27:31.335Z,4.35
2019-05-23T18:29:58.314Z,3.45
2019-05-23T18:32:27.689Z,3.95
2019-05-23T18:34:55.587Z,5.50
2019-05-23T18:37:22.580Z,5.05
2019-05-23T18:39:49.362Z,4.83
2019-05-23T18:42:16.978Z,5.30
2019-05-23T18:44:44.179Z,5.53
2019-05-23T18:47:17.549Z,5.97
2019-05-23T18:49:44.527Z,5.80
2019-05-23T18:52:11.430Z,5.67
2019-05-23T18:54:38.127Z,4.90
2019-05-23T18:57:04.922Z,7.03
2019-05-23T18:59:31.995Z,6.62
2019-05-23T19:01:58.798Z,5.75
2019-05-23T19:04:25.782Z,8.43
2019-05-23T19:06:53.090Z,5.03
2019-05-23T19:09:21.667Z,5.80
2019-05-23T19:11:48.470Z,5.72
2019-05-23T19:14:15.354Z,5.83
2019-05-23T19:16:42.160Z,5.47
2019-05-23T19:19:09.106Z,5.10
2019-05-23T19:21:36.081Z,7.92
2019-05-23T19:24:04.177Z,6.30
2019-05-23T19:26:30.982Z,10.40
2019-05-23T19:28:57.655Z,6.72
2019-05-23T19:31:25.488Z,8.43
2019-05-23T19:33:52.332Z,6.60
2019-05-23T19:36:19.325Z,10.90
2019-05-23T19:38:46.579Z,7.67
2019-05-23T19:41:13.392Z,13.10
2019-05-23T19:43:40.837Z,11.28
2019-05-23T19:46:07.624Z,6.70
2019-05-23T19:48:35.863Z,8.90
2019-05-23T19:51:02.871Z,8.68
2019-05-23T19:53:30.299Z,10.05
2019-05-23T19:55:57.338Z,6.87
2019-05-23T19:58:24.209Z,8.43
2019-05-23T20:00:51.079Z,9.55
2019-05-23T20:03:18.216Z,7.95
2019-05-23T20:05:45.490Z,8.05
2019-05-23T20:08:12.434Z,7.10
2019-05-23T20:10:39.973Z,8.53
2019-05-23T20:13:06.764Z,7.15
2019-05-23T20:15:33.759Z,6.87
2019-05-23T20:18:00.735Z,7.85
2019-05-23T20:20:27.734Z,9.15
2019-05-23T20:22:54.614Z,7.75
2019-05-23T20:25:21.738Z,7.50
2019-05-23T20:27:48.560Z,11.85
2019-05-23T20:30:59.675Z,7.15
2019-05-23T20:33:27.108Z,8.38
2019-05-23T20:35:54.281Z,8.85
2019-05-23T20:38:22.470Z,8.93
2019-05-23T20:40:49.147Z,9.70
2019-05-23T20:43:15.983Z,8.05
2019-05-23T20:45:42.793Z,8.48
2019-05-23T20:48:09.640Z,8.90
2019-05-23T20:50:36.409Z,8.35
2019-05-23T20:53:03.772Z,10.60
2019-05-23T20:55:30.578Z,8.00
2019-05-23T20:57:57.411Z,7.15
2019-05-23T21:00:36.327Z,9.35
2019-05-23T21:03:03.291Z,8.03
2019-05-23T21:05:31.489Z,9.90
2019-05-23T21:07:58.275Z,8.23
2019-05-23T21:10:44.998Z,7.33
2019-05-23T21:13:11.758Z,8.23
2019-05-23T21:15:40.840Z,8.08
2019-05-23T21:18:07.251Z,9.18
2019-05-23T21:20:34.061Z,8.88
2019-05-23T21:23:00.955Z,12.10
2019-05-23T21:25:28.292Z,14.87
2019-05-23T21:27:55.151Z,10.35
2019-05-23T21:30:21.855Z,9.73
2019-05-23T21:32:48.625Z,8.53
2019-05-23T21:35:15.260Z,7.58
2019-05-23T21:37:42.049Z,9.35
2019-05-23T21:40:13.435Z,12.58
2019-05-23T21:42:47.651Z,12.13
2019-05-23T21:45:08.955Z,8.88
2019-05-23T21:47:35.724Z,10.35
2019-05-23T21:50:02.875Z,10.40
2019-05-23T21:52:29.453Z,8.43
2019-05-23T21:54:56.246Z,10.25
2019-05-23T21:57:22.931Z,8.70
2019-05-23T21:59:49.687Z,9.40
2019-05-23T22:02:24.728Z,12.13
2019-05-23T22:04:56.485Z,10.32
2019-05-23T22:07:23.257Z,9.75
2019-05-23T22:09:50.054Z,11.12
2019-05-23T22:12:17.246Z,15.15
2019-05-23T22:14:45.135Z,12.03
2019-05-23T22:17:11.920Z,15.23
2019-05-23T22:19:38.618Z,15.90
2019-05-23T22:22:05.803Z,13.48
2019-05-23T22:24:32.603Z,16.50
2019-05-23T22:26:59.381Z,14.63
2019-05-23T22:29:26.173Z,18.52
2019-05-23T22:31:56.402Z,16.23
2019-05-23T22:34:37.271Z,14.63
2019-05-23T22:37:09.872Z,12.60
2019-05-23T22:39:36.558Z,12.10
2019-05-23T22:42:05.146Z,14.45
2019-05-23T22:44:31.944Z,16.97
2019-05-23T22:46:58.761Z,13.83
2019-05-23T22:49:25.440Z,12.93
2019-05-23T22:51:52.249Z,16.90
2019-05-23T22:54:19.055Z,12.98
2019-05-23T22:56:45.879Z,13.30
2019-05-23T22:59:12.652Z,14.87
2019-05-23T23:01:39.463Z,14.78
2019-05-23T23:04:06.682Z,15.75
2019-05-23T23:09:07.977Z,16.57
2019-05-23T23:11:34.867Z,15.75
2019-05-23T23:14:01.636Z,17.17
2019-05-23T23:16:28.334Z,14.78
2019-05-23T23:18:56.187Z,20.55
2019-05-23T23:21:22.874Z,18.05
2019-05-23T23:23:50.150Z,18.20
2019-05-23T23:26:16.940Z,22.40
2019-05-23T23:28:45.851Z,17.50
2019-05-23T23:31:12.866Z,18.37
2019-05-23T23:33:39.641Z,17.77
2019-05-23T23:36:06.320Z,20.85
2019-05-23T23:38:34.006Z,20.60
2019-05-23T23:41:00.685Z,19.45
2019-05-23T23:43:27.760Z,16.75
2019-05-23T23:46:12.551Z,16.95
2019-05-23T23:48:58.482Z,19.48
2019-05-23T23:51:43.254Z,17.30
2019-05-23T23:54:28.120Z,17.52
2019-05-23T23:57:13.465Z,18.95
2019-05-23T23:59:39.916Z,18.62
